Main page
METAR-TAF:

METAR-TAF

Airports :

Monte Cimone, Italy

latitude: 44-12N, longitude: 010-42E, elevation: 2165 m

Current weather observation

The report was made 27 minutes ago, at 14:55 UTC
Wind 6 kt from the North/Northwest
Temperature 2°C
Humidity 51%
Pressure 1023 hPa
Visibility 10 km or more
no clouds below 1500 m and no cumulonimbus

METAR: LIVC 231455Z 33006KT CAVOK 02/M07 Q1023 RMK BKN BKN140 MON LIB VAL NIL VIS MIN 9999

Time: 16:22 (15:22 UTC)


TAF: missing

Weather observations and forecasts of more than 4000 airports (METAR and TAF reports).

The available stations are represented by yellow and red dots on the map.

Hover mouse over dot to see the name of the station.

Then click to see weather observations and forecasts.

To change the map : click on the green buttons with a black cross to zoom in, on the green button with a dash to zoom out, or on the green arrows for adjacent maps.


METAR-TAF: